McCook, NE (69001)

7:34 AM CST on February 12, 2016 (GMT -0600)
KNEMCCOO2 | | Change Station
CLOSE
Current Station
Personal Weather Station
Location: McCook, NE
Elevation: 2609 ft
Nearby Weather Stations

Elev 2609 ft 40.21 °N, 100.64 °W | Updated 1 minute ago

Partly Cloudy
Partly Cloudy
29.1 °F
Feels Like 29 °F
N
0.0
Wind Variable Wind from WNW
Gusts 2.0 mph

Today
High -- | Low -- °F
--% Chance of Precip.
Yesterday
High -- | Low -- °F
Precip. -- in
Pressure 30.40 in
Visibility 10.0 miles
Clouds Clear
Windchill 29 °F
Dew Point 24 °F
Humidity 84%
Rainfall 0.00 in
Snow Depth Not available.
7:40 AM 6:14 PM
Waxing Crescent, 20% visible
METAR KMCK 121253Z AUTO 25007KT 10SM CLR M04/M05 A3033 RMK AO2 SLP292 T10391050
Pressure 30.40 in
Visibility 10.0 miles
Clouds Clear
Windchill 29 °F
Dew Point 24 °F
Humidity 84%
Rainfall 0.00 in
Snow Depth Not available.
7:40 AM 6:14 PM
Waxing Crescent, 20% visible
METAR KMCK 121253Z AUTO 25007KT 10SM CLR M04/M05 A3033 RMK AO2 SLP292 T10391050

10-Day Weather Forecast

Almanac

Astronomy

Feb. 12, 2016 Rise Set
Actual Time
Civil Twilight
Nautical Twilight
Astronomical Twilight
Moon
Length of Visible Light
Length of Day
Tomorrow will be .
, % of the Moon is Illuminated

Today's Extremes

State Highs State Lows

Community

WunderPhotos

Upload Photos

1,892,312 photos uploaded!

WunderBlog® & News

Nearby

Air Quality

  Air Quality AQ Index Pollutant
Not available.

Snow Depth

Station Depth Elevation

Earthquake Activity

City Distance Mag. Time & Date
Minimum magnitude displayed is 2.5.

Coastal Water Temperatures

Place Temperature

Stations

Nearby Weather Stations

Station Location Temp. Windchill Dew Point Humidity Wind Precip. Elev Updated Type
                   

Watches & Warnings

There are currently no watches in effect.